Time;durP1;ratioP1;P1;durP2;ratioP2;P2;SDS_P1;SDS_P2;PMS_P1;PMS_P2;Temp;Humidity;BMP_temperature;BMP_pressure;BME280_temperature;BME280_humidity;BME280_pressure;Samples;Min_cycle;Max_cycle;Signal;HPM_P1;HPM_P2
2022/07/30 00:01:33;;;;;;;;;15.00;15.00;;;;;24.26;68.88;99352.53;6311198;20;2483838;-60
2022/07/30 00:04:04;;;;;;;;;17.00;15.33;;;;;24.30;68.66;99351.13;6312290;20;3550687;-60
2022/07/30 00:06:32;;;;;;;;;15.00;15.00;;;;;24.25;68.26;99353.59;6283817;20;3539829;-60
2022/07/30 00:09:01;;;;;;;;;17.00;17.00;;;;;24.16;68.64;99349.22;6312171;20;2831624;-59
2022/07/30 00:11:29;;;;;;;;;15.00;15.00;;;;;23.98;69.25;99349.59;6280377;20;2814886;-60
2022/07/30 00:13:58;;;;;;;;;14.33;14.00;;;;;24.12;67.78;99352.53;6278783;20;3534680;-59
2022/07/30 00:16:27;;;;;;;;;14.00;14.00;;;;;24.17;67.94;99359.19;6277477;20;2808648;-59
2022/07/30 00:18:56;;;;;;;;;16.00;16.00;;;;;24.18;67.63;99358.13;6284820;20;3556525;-60
2022/07/30 00:21:25;;;;;;;;;15.00;15.00;;;;;24.24;66.94;99360.09;6314953;20;2809668;-60
2022/07/30 00:24:05;;;;;;;;;17.50;16.00;;;;;24.23;67.10;99352.06;6287491;20;2824206;-60
2022/07/30 00:26:34;;;;;;;;;14.67;14.67;;;;;24.27;66.95;99354.22;6285511;20;3535658;-60
2022/07/30 00:29:04;;;;;;;;;15.00;15.00;;;;;24.30;67.05;99348.38;6319340;20;3553407;-60
2022/07/30 00:31:32;;;;;;;;;16.50;15.00;;;;;24.10;68.41;99337.13;6316251;20;2825261;-60
2022/07/30 00:34:01;;;;;;;;;17.00;17.00;;;;;23.94;68.62;99331.00;6283851;20;2825293;-60
2022/07/30 00:36:30;;;;;;;;;18.00;16.00;;;;;23.96;69.12;99337.13;6284363;20;2829445;-60
2022/07/30 00:38:58;;;;;;;;;17.00;15.00;;;;;24.01;67.44;99331.91;6284296;20;2845041;-58
2022/07/30 00:41:27;;;;;;;;;16.00;15.00;;;;;24.12;65.79;99323.22;6285678;20;3548277;-59
2022/07/30 00:43:56;;;;;;;;;14.67;12.33;;;;;24.25;63.95;99317.03;6287016;20;2491956;-60
2022/07/30 00:46:24;;;;;;;;;14.33;14.33;;;;;24.16;64.03;99316.31;6315775;20;2485721;-60
2022/07/30 00:48:53;;;;;;;;;14.67;14.00;;;;;24.01;64.48;99313.59;6316629;20;3537943;-60
2022/07/30 00:51:22;;;;;;;;;17.67;14.00;;;;;24.04;64.63;99312.34;6318943;20;3527308;-60
2022/07/30 00:53:50;;;;;;;;;19.67;15.33;;;;;23.83;66.11;99310.38;6315925;20;2483693;-60
2022/07/30 00:56:19;;;;;;;;;11.67;9.00;;;;;23.93;65.71;99307.34;6315578;20;3487714;-60
2022/07/30 00:58:47;;;;;;;;;17.00;16.67;;;;;23.84;66.35;99310.19;6318160;20;3566924;-60
2022/07/30 01:01:16;;;;;;;;;15.33;13.33;;;;;23.63;67.58;99296.34;6285468;20;3534680;-60
2022/07/30 01:03:45;;;;;;;;;15.50;15.00;;;;;23.73;67.75;99296.13;6314129;20;2819346;-60
2022/07/30 01:06:14;;;;;;;;;20.33;17.00;;;;;23.80;67.98;99308.88;6283334;20;2483612;-60
2022/07/30 01:08:43;;;;;;;;;16.00;15.50;;;;;23.67;68.94;99303.13;6313585;20;2817947;-60
2022/07/30 01:11:11;;;;;;;;;17.50;15.00;;;;;23.59;69.27;99311.47;6283246;20;2819014;-59
2022/07/30 01:13:40;;;;;;;;;18.50;16.50;;;;;23.59;69.36;99308.72;6282391;20;2835746;-60
2022/07/30 01:16:10;;;;;;;;;15.00;14.00;;;;;23.44;69.65;99309.56;6278758;20;2806689;-60
2022/07/30 01:21:37;;;;;;;;;18.00;16.33;;;;;23.31;70.65;99306.63;6314265;20;3562815;-60
2022/07/30 01:24:40;;;;;;;;;16.50;16.50;;;;;23.17;71.38;99308.28;6277865;20;2827376;-60
2022/07/30 01:27:12;;;;;;;;;14.00;14.00;;;;;23.30;71.13;99304.03;6280706;20;3541989;-60
2022/07/30 01:29:48;;;;;;;;;17.00;16.00;;;;;22.96;72.50;99306.25;6315079;20;3561859;-60
2022/07/30 01:32:22;;;;;;;;;20.00;18.00;;;;;23.10;72.46;99298.25;6283515;20;3573168;-60
2022/07/30 01:34:55;;;;;;;;;16.00;15.00;;;;;23.07;73.03;99304.94;6277880;20;3550222;-60
2022/07/30 01:37:26;;;;;;;;;14.00;13.00;;;;;22.96;73.14;99302.59;6283993;20;2793995;-60
2022/07/30 01:39:56;;;;;;;;;17.00;17.00;;;;;22.77;74.67;99307.53;6311502;20;2844090;-59
2022/07/30 01:42:28;;;;;;;;;16.00;16.00;;;;;22.97;73.99;99307.09;6312025;20;2827390;-59
2022/07/30 01:44:58;;;;;;;;;17.00;17.00;;;;;22.68;74.66;99296.84;6316675;20;3573222;-60
2022/07/30 01:47:28;;;;;;;;;17.00;15.50;;;;;22.61;75.95;99301.34;6281223;20;2827370;-60
2022/07/30 01:49:58;;;;;;;;;15.50;15.50;;;;;22.66;75.32;99298.91;6279686;20;2823204;-60
2022/07/30 01:52:29;;;;;;;;;17.00;17.00;;;;;22.69;75.23;99293.06;6279541;20;2844680;-57
2022/07/30 01:55:02;;;;;;;;;20.00;17.00;;;;;22.39;75.94;99298.41;6281710;20;2843993;-60
2022/07/30 01:57:40;;;;;;;;;18.00;15.33;;;;;22.79;74.53;99285.47;6276807;20;2494215;-60
2022/07/30 02:00:10;;;;;;;;;16.33;16.33;;;;;22.65;75.24;99289.84;6313089;20;3556509;-60
2022/07/30 02:02:40;;;;;;;;;16.00;16.00;;;;;22.52;75.35;99282.25;6282760;20;3560748;-60
2022/07/30 02:05:09;;;;;;;;;20.33;17.00;;;;;22.41;76.48;99273.56;6319087;20;3560638;-60
2022/07/30 02:07:51;;;;;;;;;18.33;17.33;;;;;22.34;76.59;99278.94;6281592;20;2487917;-60
2022/07/30 02:10:41;;;;;;;;;16.00;15.33;;;;;22.38;76.22;99268.47;6313911;20;3549180;-60
2022/07/30 02:13:17;;;;;;;;;17.50;16.00;;;;;22.31;76.18;99257.41;6310738;20;2822210;-60
2022/07/30 02:15:55;;;;;;;;;18.00;16.00;;;;;22.10;76.95;99264.34;6282066;20;2826342;-60
2022/07/30 02:19:01;;;;;;;;;18.00;17.00;;;;;22.19;76.36;99258.84;6279940;20;2831508;-60
2022/07/30 02:21:50;;;;;;;;;16.00;16.00;;;;;22.08;76.27;99247.25;6283564;20;3551404;-60
2022/07/30 02:24:26;;;;;;;;;18.50;18.00;;;;;22.08;76.38;99240.94;6280658;20;2833622;-60
2022/07/30 02:27:17;;;;;;;;;16.00;15.00;;;;;22.10;76.23;99237.00;6279522;20;2491979;-60
2022/07/30 02:29:48;;;;;;;;;16.00;16.00;;;;;22.19;75.59;99236.97;6315658;20;3557584;-60
2022/07/30 02:32:21;;;;;;;;;15.00;14.50;;;;;22.29;75.13;99230.22;6278951;20;2806541;-60
2022/07/30 02:34:58;;;;;;;;;17.67;16.00;;;;;22.31;74.55;99222.72;6283982;20;2487750;-60
2022/07/30 02:37:29;;;;;;;;;16.00;14.00;;;;;22.50;73.16;99218.63;6309886;20;2809671;-60
2022/07/30 02:40:17;;;;;;;;;15.33;14.33;;;;;22.64;72.16;99214.22;6311489;20;2483590;-58
2022/07/30 02:42:50;;;;;;;;;13.33;13.33;;;;;22.55;71.98;99212.63;6312757;20;2487806;-59
2022/07/30 02:45:22;;;;;;;;;18.67;16.00;;;;;22.56;71.97;99212.44;6308763;20;2479429;-60
2022/07/30 02:48:05;;;;;;;;;15.00;13.00;;;;;22.66;71.64;99205.84;6311185;20;2483599;-60
2022/07/30 02:50:35;;;;;;;;;16.33;16.33;;;;;22.61;70.77;99198.19;6313389;20;3560660;-60
2022/07/30 02:53:11;;;;;;;;;15.33;12.67;;;;;22.75;70.08;99202.88;6314388;20;3532525;-60
2022/07/30 02:55:42;;;;;;;;;15.67;15.67;;;;;22.70;69.87;99196.25;6278878;20;2483661;-60
2022/07/30 02:58:11;;;;;;;;;16.50;14.50;;;;;22.72;69.84;99206.00;6306272;20;2817044;-60
2022/07/30 03:00:42;;;;;;;;;10.00;9.67;;;;;22.67;70.10;99207.53;6277358;20;3495270;-60
2022/07/30 03:03:12;;;;;;;;;12.67;12.67;;;;;22.72;69.59;99213.31;6308702;20;3530546;-60
2022/07/30 03:05:43;;;;;;;;;15.00;15.00;;;;;22.82;69.13;99224.88;6280697;20;3526376;-59
2022/07/30 03:08:14;;;;;;;;;12.33;12.33;;;;;22.63;69.46;99233.59;6274217;20;3528585;-61
2022/07/30 03:10:48;;;;;;;;;16.00;14.33;;;;;22.41;71.16;99225.22;6281143;20;2489877;-60
2022/07/30 03:13:19;;;;;;;;;16.50;16.50;;;;;22.03;72.61;99235.16;6307862;20;2828451;-60
2022/07/30 03:15:51;;;;;;;;;14.67;13.67;;;;;22.00;73.02;99241.81;6282132;20;2485720;-60
2022/07/30 03:18:23;;;;;;;;;14.33;14.33;;;;;22.23;72.37;99241.06;6314694;20;3537971;-59
2022/07/30 03:20:55;;;;;;;;;14.00;14.00;;;;;22.02;73.21;99237.03;6306632;20;3535742;-59
2022/07/30 03:23:25;;;;;;;;;15.33;15.33;;;;;22.22;72.70;99244.81;6280612;20;3544122;-60
2022/07/30 03:26:01;;;;;;;;;13.67;13.67;;;;;22.18;73.03;99244.28;6277931;20;3531486;-60
2022/07/30 03:28:38;;;;;;;;;15.00;15.00;;;;;22.21;73.79;99241.22;6278842;20;3537729;-61
2022/07/30 03:31:09;;;;;;;;;17.67;16.33;;;;;22.20;73.74;99245.00;6315944;20;3558635;-60
2022/07/30 03:33:41;;;;;;;;;16.00;16.00;;;;;22.23;74.07;99241.91;6310349;20;2823200;-61
2022/07/30 03:36:12;;;;;;;;;13.33;13.33;;;;;22.18;75.35;99251.66;6282478;20;3520136;-60
2022/07/30 03:38:42;;;;;;;;;16.00;16.00;;;;;22.13;75.88;99250.28;6306739;20;2489854;-60
2022/07/30 03:41:12;;;;;;;;;17.00;16.00;;;;;22.35;74.94;99245.06;6308608;20;2825243;-60
2022/07/30 03:43:41;;;;;;;;;19.00;16.00;;;;;22.41;74.79;99257.16;6280212;20;2828388;-60
2022/07/30 03:46:13;;;;;;;;;16.00;16.00;;;;;22.36;75.10;99252.25;6277451;20;2819062;-60
2022/07/30 03:48:43;;;;;;;;;18.00;16.00;;;;;22.43;75.07;99250.47;6278544;20;2826298;-61
2022/07/30 03:51:13;;;;;;;;;17.00;16.00;;;;;22.40;76.17;99248.13;6279256;20;3566900;-61
2022/07/30 03:53:42;;;;;;;;;16.33;15.00;;;;;22.14;76.43;99248.41;6278276;20;2492002;-60
2022/07/30 03:56:13;;;;;;;;;19.50;18.00;;;;;22.10;77.37;99245.19;6313893;20;2825401;-60
2022/07/30 03:58:42;;;;;;;;;16.00;14.67;;;;;22.22;77.16;99242.06;6284138;20;2487788;-60
2022/07/30 04:01:11;;;;;;;;;14.00;14.00;;;;;22.26;77.05;99249.75;6321224;20;3537726;-60
2022/07/30 04:03:39;;;;;;;;;15.00;13.00;;;;;22.29;77.17;99251.28;6317188;20;3532557;-60
2022/07/30 04:06:08;;;;;;;;;14.50;14.50;;;;;22.15;77.54;99247.41;6280576;20;2808700;-60
2022/07/30 04:08:37;;;;;;;;;15.33;15.33;;;;;22.25;77.34;99248.06;6280905;20;3551347;-60
2022/07/30 04:11:05;;;;;;;;;15.00;15.00;;;;;22.20;78.16;99249.63;6285668;20;2483705;-60
2022/07/30 04:13:34;;;;;;;;;14.00;14.00;;;;;22.14;78.68;99246.56;6317399;20;2483630;-60
2022/07/30 04:16:25;;;;;;;;;13.33;13.00;;;;;21.91;79.54;99237.44;6318389;20;3535663;-61
2022/07/30 04:19:22;;;;;;;;;12.33;11.00;;;;;21.82;80.56;99244.81;6312281;20;3513792;-59
2022/07/30 04:21:53;;;;;;;;;14.67;13.00;;;;;21.99;80.05;99250.22;6311095;20;3531485;-59
2022/07/30 04:24:25;;;;;;;;;11.33;11.33;;;;;21.87;80.54;99249.75;6281617;20;3527449;-60
2022/07/30 04:26:53;;;;;;;;;14.50;14.50;;;;;21.95;80.53;99252.44;6281292;20;2500312;-61
2022/07/30 04:29:22;;;;;;;;;13.33;13.33;;;;;22.06;80.02;99253.94;6283135;20;3514791;-60
2022/07/30 04:31:56;;;;;;;;;14.00;14.00;;;;;22.23;79.36;99244.66;6315256;20;3540173;-60
2022/07/30 04:34:24;;;;;;;;;13.00;13.00;;;;;22.04;79.63;99248.66;6286171;20;3537729;-60
2022/07/30 04:36:53;;;;;;;;;15.00;12.67;;;;;22.14;79.52;99246.56;6286150;20;2791983;-60
2022/07/30 04:39:21;;;;;;;;;15.00;15.00;;;;;22.17;79.40;99239.88;6314056;20;2810677;-60
2022/07/30 04:41:50;;;;;;;;;13.00;13.00;;;;;22.31;78.85;99235.53;6282439;20;3523250;-60
2022/07/30 04:44:19;;;;;;;;;13.67;13.67;;;;;22.31;78.59;99246.47;6288612;20;3535771;-60
2022/07/30 04:46:48;;;;;;;;;16.00;15.00;;;;;22.33;78.52;99247.16;6317619;20;3545054;-60
2022/07/30 04:49:18;;;;;;;;;16.00;14.00;;;;;22.64;77.73;99254.44;6319076;20;3536774;-60
2022/07/30 04:51:49;;;;;;;;;14.33;12.00;;;;;22.51;77.83;99253.19;6313363;20;2483655;-60
2022/07/30 04:54:20;;;;;;;;;15.33;15.33;;;;;22.62;78.07;99249.16;6313569;20;2483644;-60
2022/07/30 04:56:50;;;;;;;;;15.67;15.33;;;;;22.78;76.57;99242.72;6316279;20;3547178;-60
2022/07/30 04:59:24;;;;;;;;;17.50;17.50;;;;;23.01;76.31;99242.69;6309981;20;2828403;-59
2022/07/30 05:01:58;;;;;;;;;13.67;13.67;;;;;23.00;75.77;99241.00;6280958;20;2483700;-60
2022/07/30 05:04:29;;;;;;;;;13.33;13.00;;;;;23.20;75.58;99252.28;6314863;20;3539808;-60
2022/07/30 05:07:00;;;;;;;;;15.00;15.00;;;;;23.33;74.46;99246.13;6311786;20;2682671;-60
2022/07/30 05:09:32;;;;;;;;;13.00;13.00;;;;;23.54;73.82;99248.13;6319180;20;2789885;-60
2022/07/30 05:12:00;;;;;;;;;14.50;14.50;;;;;23.82;73.05;99251.09;6313581;20;2808572;-60
2022/07/30 05:14:29;;;;;;;;;10.00;9.00;;;;;23.86;71.69;99249.69;6288998;20;2765993;-60
2022/07/30 05:16:57;;;;;;;;;14.67;13.00;;;;;23.65;71.78;99250.41;6317135;20;3529586;-60
2022/07/30 05:19:27;;;;;;;;;13.00;12.00;;;;;23.84;70.93;99249.00;6316971;20;3527379;-61
2022/07/30 05:21:55;;;;;;;;;16.33;16.33;;;;;23.94;70.83;99251.47;6318884;20;3563868;-60
2022/07/30 05:24:24;;;;;;;;;15.50;15.00;;;;;24.25;69.62;99260.28;6282452;20;2809890;-60
2022/07/30 05:26:53;;;;;;;;;17.00;16.67;;;;;24.35;69.66;99250.88;6281376;20;2483667;-59
2022/07/30 05:29:22;;;;;;;;;61.33;48.33;;;;;24.31;69.84;99251.28;6315815;20;3630932;-60
2022/07/30 05:31:51;;;;;;;;;19.33;18.33;;;;;24.44;67.98;99241.50;6285137;20;3573142;-59
2022/07/30 05:34:20;;;;;;;;;16.33;14.33;;;;;24.83;66.94;99242.94;6286541;20;2483637;-60
2022/07/30 05:36:49;;;;;;;;;13.67;13.67;;;;;24.72;67.87;99241.59;6314176;20;3539898;-60
2022/07/30 05:39:18;;;;;;;;;13.67;13.00;;;;;24.86;66.86;99242.56;6316062;20;2483645;-59
2022/07/30 05:41:46;;;;;;;;;14.50;13.50;;;;;25.15;65.50;99245.16;6313597;20;2806489;-59
2022/07/30 05:44:15;;;;;;;;;14.00;14.00;;;;;25.02;65.58;99242.28;6285018;20;2798360;-58
2022/07/30 05:46:49;;;;;;;;;16.00;13.67;;;;;24.89;65.75;99245.75;6315621;20;3528437;-59
2022/07/30 05:49:18;;;;;;;;;13.67;13.00;;;;;25.27;64.75;99250.94;6312093;20;2489893;-59
2022/07/30 05:51:46;;;;;;;;;13.33;13.33;;;;;25.33;64.40;99254.78;6315383;20;2483570;-60
2022/07/30 05:54:17;;;;;;;;;13.33;13.00;;;;;25.25;64.49;99253.06;6313704;20;3537760;-59
2022/07/30 05:56:46;;;;;;;;;15.00;14.00;;;;;25.34;64.06;99257.34;6282452;20;2483614;-60
2022/07/30 05:59:14;;;;;;;;;13.00;13.00;;;;;25.17;64.96;99262.31;6313627;20;3533568;-59
2022/07/30 06:01:43;;;;;;;;;17.00;14.00;;;;;25.33;64.98;99272.16;6283065;20;2811737;-60
2022/07/30 06:04:12;;;;;;;;;16.50;14.00;;;;;25.37;64.41;99270.69;6283966;20;2819004;-60
2022/07/30 06:06:40;;;;;;;;;15.00;13.00;;;;;25.58;64.17;99272.53;6281049;20;2485661;-60
2022/07/30 06:09:09;;;;;;;;;13.00;13.00;;;;;25.63;63.50;99275.53;6317497;20;3537909;-60
2022/07/30 06:11:38;;;;;;;;;22.33;15.67;;;;;25.83;62.96;99283.06;6318316;20;3581547;-59
2022/07/30 06:14:06;;;;;;;;;11.33;10.67;;;;;25.65;62.63;99282.72;6287146;20;2776283;-60
2022/07/30 06:16:35;;;;;;;;;16.33;14.00;;;;;25.99;62.12;99284.66;6316003;20;3543953;-60
2022/07/30 06:19:03;;;;;;;;;15.00;13.00;;;;;26.00;61.47;99291.84;6315421;20;2483607;-60
2022/07/30 06:21:32;;;;;;;;;11.00;10.67;;;;;26.14;60.84;99278.97;6314457;20;3521109;-60
2022/07/30 06:24:21;;;;;;;;;9.33;9.33;;;;;26.04;60.43;99287.59;6282507;20;2483606;-60
2022/07/30 06:26:49;;;;;;;;;15.00;14.33;;;;;26.50;59.74;99285.03;6316189;20;3534641;-60
2022/07/30 06:29:19;;;;;;;;;10.50;10.00;;;;;26.39;60.20;99282.06;6311661;20;2771165;-60
2022/07/30 06:31:48;;;;;;;;;13.00;11.00;;;;;26.32;60.22;99276.50;6317342;20;3539935;-58
2022/07/30 06:34:16;;;;;;;;;12.33;11.00;;;;;26.44;60.06;99280.38;6316224;20;2790965;-60
2022/07/30 06:36:45;;;;;;;;;15.67;13.00;;;;;26.67;59.65;99281.94;6311784;20;2483597;-60
2022/07/30 06:39:13;;;;;;;;;15.00;12.67;;;;;26.76;59.51;99282.59;6315931;20;3523170;-60
2022/07/30 06:42:02;;;;;;;;;10.67;9.67;;;;;26.14;60.19;99281.72;6312610;20;3505446;-60
2022/07/30 06:44:31;;;;;;;;;15.33;15.33;;;;;26.59;59.67;99282.97;6313499;20;3544104;-59
2022/07/30 06:47:00;;;;;;;;;12.33;12.00;;;;;27.08;58.31;99283.69;6315916;20;3521086;-60
2022/07/30 06:49:36;;;;;;;;;13.00;12.00;;;;;27.93;56.95;99284.69;6312884;20;3513943;-59
2022/07/30 06:52:05;;;;;;;;;13.00;13.00;;;;;28.49;54.74;99291.50;6313244;20;3531469;-59
2022/07/30 06:54:33;;;;;;;;;13.00;12.33;;;;;27.87;54.87;99291.06;6285567;20;2483579;-60
2022/07/30 06:57:02;;;;;;;;;9.67;8.33;;;;;26.89;57.45;99296.41;6311325;20;3473132;-60
2022/07/30 06:59:31;;;;;;;;;14.67;13.33;;;;;27.20;56.84;99289.44;6311211;20;2491925;-59
2022/07/30 07:02:20;;;;;;;;;13.00;13.00;;;;;26.95;58.53;99280.94;6313743;20;2483644;-59
2022/07/30 07:04:48;;;;;;;;;13.67;13.67;;;;;27.13;57.93;99289.41;6313486;20;3529562;-58
2022/07/30 07:07:17;;;;;;;;;13.50;13.50;;;;;27.55;57.05;99279.03;6309611;20;2797141;-59
2022/07/30 07:10:07;;;;;;;;;15.00;14.00;;;;;28.16;55.26;99288.88;6280707;20;2806668;-59
2022/07/30 07:12:37;;;;;;;;;9.00;9.00;;;;;29.13;53.82;99300.69;6307611;20;2752742;-60
2022/07/30 07:15:07;;;;;;;;;6.40;6.40;;;;;28.65;53.51;99295.66;6306261;20;2737785;-60
2022/07/30 07:17:36;;;;;;;;;13.00;13.00;;;;;27.85;55.87;99292.34;6276766;20;3527329;-60
2022/07/30 07:20:05;;;;;;;;;13.67;10.67;;;;;28.30;54.92;99295.16;6284326;20;2797545;-60
2022/07/30 07:22:35;;;;;;;;;33.67;25.00;;;;;27.56;56.71;99288.97;6312045;20;3597172;-60
2022/07/30 07:25:05;;;;;;;;;14.33;14.33;;;;;27.11;57.96;99286.84;6314542;20;2483629;-60
2022/07/30 07:27:34;;;;;;;;;13.00;13.00;;;;;26.92;58.58;99288.53;6310391;20;2483582;-60
2022/07/30 07:30:05;;;;;;;;;12.00;11.00;;;;;26.98;58.44;99289.59;6314252;20;3524636;-60
2022/07/30 07:32:36;;;;;;;;;33.25;26.00;;;;;26.84;58.51;99290.66;6314290;20;4350268;-60
2022/07/30 07:35:06;;;;;;;;;12.00;12.00;;;;;27.14;58.35;99280.06;6316956;20;2483616;-60
2022/07/30 07:37:34;;;;;;;;;12.00;11.00;;;;;27.47;57.76;99279.25;6313208;20;3519212;-60
2022/07/30 07:40:04;;;;;;;;;11.00;11.00;;;;;28.41;54.72;99281.53;6306293;20;3517926;-61
2022/07/30 07:42:33;;;;;;;;;10.00;8.67;;;;;28.57;54.45;99279.31;6312907;20;2769477;-60
2022/07/30 07:45:02;;;;;;;;;12.00;10.33;;;;;29.60;51.62;99272.63;6309831;20;3500321;-60
2022/07/30 07:47:42;;;;;;;;;7.20;7.20;;;;;29.88;50.09;99272.94;6300432;20;2735808;-60
2022/07/30 07:50:20;;;;;;;;;14.00;13.67;;;;;29.80;50.24;99278.78;6309487;20;3541039;-60
2022/07/30 07:52:49;;;;;;;;;14.67;14.67;;;;;29.88;49.65;99267.41;6281908;20;3539886;-59
2022/07/30 07:55:18;;;;;;;;;12.67;12.67;;;;;30.54;47.69;99257.44;6279625;20;3506499;-58
2022/07/30 07:57:46;;;;;;;;;15.00;13.00;;;;;30.36;48.61;99263.88;6310148;20;3531677;-55
2022/07/30 08:00:17;;;;;;;;;12.67;12.67;;;;;29.81;49.48;99250.06;6283962;20;3532523;-59
2022/07/30 08:02:50;;;;;;;;;17.00;16.00;;;;;29.48;50.63;99242.06;6311726;20;2825367;-59
2022/07/30 08:05:19;;;;;;;;;12.33;10.67;;;;;29.64;50.97;99241.50;6280324;20;3510687;-55
2022/07/30 08:07:47;;;;;;;;;15.33;13.33;;;;;29.78;50.46;99244.13;6280621;20;3504488;-57
2022/07/30 08:10:16;;;;;;;;;12.00;12.00;;;;;30.79;47.79;99239.81;6311396;20;3529601;-53
2022/07/30 08:12:44;;;;;;;;;11.00;10.00;;;;;30.67;48.02;99237.00;6315247;20;3514885;-59
2022/07/30 08:15:13;;;;;;;;;15.50;13.50;;;;;30.71;48.54;99238.22;6309536;20;2800395;-56
2022/07/30 08:17:47;;;;;;;;;14.33;14.33;;;;;31.09;47.66;99238.94;6280172;20;3546054;-59
2022/07/30 08:20:16;;;;;;;;;11.67;11.67;;;;;30.63;48.54;99219.16;6313264;20;3515994;-57
2022/07/30 08:22:44;;;;;;;;;8.00;7.00;;;;;30.71;48.00;99218.81;6311506;20;3463768;-57
2022/07/30 08:25:13;;;;;;;;;9.00;9.00;;;;;30.79;48.68;99209.31;6312677;20;3491007;-58
2022/07/30 08:27:50;;;;;;;;;14.00;12.67;;;;;30.00;49.85;99208.53;6313024;20;3529448;-60
2022/07/30 08:30:21;;;;;;;;;21.33;21.33;;;;;30.87;48.86;99213.72;6311187;20;3572182;-59
2022/07/30 08:32:50;;;;;;;;;21.67;20.00;;;;;30.89;47.54;99217.09;6313248;20;3576388;-60
2022/07/30 08:35:19;;;;;;;;;12.00;10.33;;;;;31.39;46.51;99227.78;6280303;20;3509617;-59
2022/07/30 08:37:48;;;;;;;;;15.00;15.00;;;;;30.75;47.60;99231.09;6308525;20;2810807;-58
2022/07/30 08:40:19;;;;;;;;;23.00;22.50;;;;;30.97;45.73;99222.28;6283160;20;2837757;-59
2022/07/30 08:42:49;;;;;;;;;26.50;24.75;;;;;31.02;46.76;99236.28;6286829;20;3595075;-59
2022/07/30 08:45:19;;;;;;;;;14.33;13.00;;;;;29.46;50.60;99220.16;6314332;20;3537877;-59
2022/07/30 08:48:09;;;;;;;;;13.33;13.33;;;;;29.45;50.40;99232.31;6314528;20;3517045;-59
2022/07/30 08:50:45;;;;;;;;;14.67;14.67;;;;;29.80;49.38;99228.97;6318535;20;3537781;-60
2022/07/30 08:53:14;;;;;;;;;13.33;13.00;;;;;29.71;49.72;99235.91;6283108;20;2491988;-59
2022/07/30 08:55:43;;;;;;;;;12.00;12.00;;;;;29.37;50.55;99234.53;6318464;20;3531549;-58
2022/07/30 08:58:30;;;;;;;;;15.00;15.00;;;;;29.38;50.75;99231.53;6319658;20;3542055;-57
2022/07/30 09:00:59;;;;;;;;;13.00;13.00;;;;;29.19;50.33;99251.94;6314218;20;2802510;-57
2022/07/30 09:03:28;;;;;;;;;15.33;14.67;;;;;29.33;50.06;99250.72;6282362;20;2483616;-59
2022/07/30 09:05:57;;;;;;;;;16.00;15.00;;;;;28.64;51.60;99258.03;6315217;20;2816996;-57
2022/07/30 09:08:29;;;;;;;;;11.00;11.00;;;;;28.46;51.89;99264.31;6282180;20;3514816;-57
2022/07/30 09:10:58;;;;;;;;;7.67;6.67;;;;;27.97;52.58;99268.56;6286852;20;2743997;-58
2022/07/30 09:13:37;;;;;;;;;8.33;8.33;;;;;27.52;53.51;99266.50;6317581;20;2743046;-58
2022/07/30 09:16:08;;;;;;;;;12.67;10.00;;;;;27.33;54.15;99262.72;6317845;20;2796194;-57
2022/07/30 09:18:39;;;;;;;;;8.67;8.00;;;;;27.02;56.07;99259.75;6313131;20;2749300;-56
2022/07/30 09:21:28;;;;;;;;;13.33;10.00;;;;;26.22;63.78;99262.28;6314561;20;3507650;-54
2022/07/30 09:23:57;;;;;;;;;10.00;10.00;;;;;26.00;64.87;99265.16;6314164;20;2781490;-56
2022/07/30 09:26:28;;;;;;;;;10.00;10.00;;;;;26.12;66.61;99253.56;6312601;20;3516888;-59
2022/07/30 09:29:17;;;;;;;;;11.00;11.00;;;;;26.05;66.67;99248.91;6282035;20;3515973;-55
2022/07/30 09:32:03;;;;;;;;;10.00;9.00;;;;;26.65;67.08;99251.88;6312315;20;3489924;-57
2022/07/30 09:34:37;;;;;;;;;10.33;9.00;;;;;26.36;64.97;99258.53;6313301;20;2756538;-55
2022/07/30 09:37:08;;;;;;;;;10.33;9.00;;;;;26.50;63.42;99256.66;6314174;20;2773168;-59
2022/07/30 09:39:42;;;;;;;;;8.00;8.00;;;;;26.49;62.05;99261.31;6313794;20;2749247;-58
2022/07/30 09:42:28;;;;;;;;;9.00;9.00;;;;;26.89;60.65;99250.41;6313148;20;3463783;-57
2022/07/30 09:45:26;;;;;;;;;9.00;6.67;;;;;26.69;61.51;99257.78;6315556;20;2741936;-59
2022/07/30 09:48:24;;;;;;;;;11.67;9.00;;;;;25.99;63.39;99269.00;6313247;20;2771215;-58
2022/07/30 09:50:55;;;;;;;;;7.20;6.00;;;;;25.82;63.13;99276.69;6340729;20;2741925;-57
2022/07/30 09:53:57;;;;;;;;;9.67;9.00;;;;;25.87;63.56;99272.50;6324750;20;2742989;-54
2022/07/30 09:56:29;;;;;;;;;8.00;7.33;;;;;25.27;65.81;99272.09;6315284;20;2743493;-58
2022/07/30 09:58:58;;;;;;;;;8.00;7.00;;;;;25.65;67.07;99269.84;6314776;20;2748170;-59
2022/07/30 10:01:27;;;;;;;;;8.00;8.00;;;;;25.22;67.77;99267.19;6314433;20;2745047;-55
2022/07/30 10:04:31;;;;;;;;;9.20;9.20;;;;;25.70;67.21;99260.94;6339244;20;2766941;-59
2022/07/30 10:07:03;;;;;;;;;8.00;8.00;;;;;26.02;65.83;99253.97;6291720;20;2753441;-58
2022/07/30 10:09:35;;;;;;;;;7.67;7.67;;;;;26.70;63.78;99254.84;6312189;20;2746106;-53
2022/07/30 10:12:09;;;;;;;;;8.00;8.00;;;;;26.53;63.93;99261.78;6316636;20;2750241;-57
2022/07/30 10:14:45;;;;;;;;;6.00;6.00;;;;;26.20;63.19;99251.50;6314064;20;2737786;-58
2022/07/30 10:17:14;;;;;;;;;10.33;10.33;;;;;25.86;65.44;99260.66;6312830;20;2794035;-58
2022/07/30 10:19:45;;;;;;;;;9.00;9.00;;;;;25.33;66.92;99263.91;6320175;20;2752414;-57
2022/07/30 10:22:16;;;;;;;;;9.33;9.33;;;;;25.82;65.31;99264.84;6306532;20;2781536;-58
2022/07/30 10:24:48;;;;;;;;;7.60;7.60;;;;;25.79;66.11;99270.75;6335005;20;2756490;-59
2022/07/30 10:27:17;;;;;;;;;6.00;6.00;;;;;25.68;65.47;99268.56;6287843;20;2739863;-58
2022/07/30 10:29:47;;;;;;;;;10.33;8.67;;;;;25.34;67.33;99267.50;6311760;20;2773245;-56
2022/07/30 10:32:15;;;;;;;;;11.00;9.67;;;;;25.44;66.76;99276.25;6313200;20;3507513;-58
2022/07/30 10:34:44;;;;;;;;;9.00;9.00;;;;;24.91;69.64;99278.53;6310828;20;2751477;-55
2022/07/30 10:37:16;;;;;;;;;9.00;9.00;;;;;24.40;70.97;99297.81;6357432;20;3470138;-51
2022/07/30 10:39:56;;;;;;;;;12.00;12.00;;;;;24.20;71.20;99309.41;6315477;20;2792024;-54
2022/07/30 10:43:43;;;;;;;;;11.67;10.67;;;;;24.05;71.84;99303.09;6308911;20;3509695;-56
2022/07/30 10:47:01;;;;;;;;;8.00;8.00;;;;;23.80;73.10;99311.63;6317808;20;2739884;-56
2022/07/30 10:49:35;;;;;;;;;10.33;10.33;;;;;23.82;74.94;99317.75;6310480;20;3503381;-54
2022/07/30 10:52:11;;;;;;;;;10.20;10.20;;;;;23.79;75.95;99333.72;6338859;20;2791007;-55
2022/07/30 10:54:46;;;;;;;;;12.33;11.33;;;;;23.65;76.44;99338.13;6280946;20;3533674;-55
2022/07/30 10:57:20;;;;;;;;;18.00;13.50;;;;;23.65;78.07;99324.44;6279383;20;2807693;-51
2022/07/30 10:59:59;;;;;;;;;19.00;16.67;;;;;23.09;86.31;99302.88;6284793;20;3573171;-54
2022/07/30 11:02:34;;;;;;;;;18.00;18.00;;;;;22.71;90.50;99264.47;6276597;20;2837788;-52
2022/07/30 11:05:18;;;;;;;;;15.67;14.00;;;;;22.67;92.75;99267.75;6283787;20;3530466;-52
2022/07/30 11:08:37;;;;;;;;;15.00;13.67;;;;;22.75;93.05;99254.88;6309559;20;2485667;-55
2022/07/30 11:11:22;;;;;;;;;15.33;14.00;;;;;22.78;93.04;99242.72;6312765;20;3534821;-50
2022/07/30 11:14:11;;;;;;;;;15.33;13.67;;;;;23.05;91.74;99216.66;6280182;20;2491966;-50
2022/07/30 11:16:40;;;;;;;;;16.00;15.67;;;;;23.48;90.68;99210.53;6308952;20;3558673;-53
2022/07/30 11:19:16;;;;;;;;;17.00;14.00;;;;;23.48;91.87;99205.06;6283742;20;3544271;-50
2022/07/30 11:22:34;;;;;;;;;12.67;12.33;;;;;23.41;89.98;99214.03;6311037;20;2491918;-52
2022/07/30 11:25:06;;;;;;;;;18.50;15.50;;;;;23.08;90.03;99210.78;6311357;20;2827328;-53
2022/07/30 11:27:45;;;;;;;;;15.00;14.00;;;;;23.29;91.29;99214.69;6278809;20;2790979;-54
2022/07/30 11:30:15;;;;;;;;;16.67;15.00;;;;;23.66;89.25;99213.72;6280363;20;2487767;-54
2022/07/30 11:32:55;;;;;;;;;14.50;14.50;;;;;23.44;88.78;99216.41;6310334;20;2810749;-54
2022/07/30 11:35:30;;;;;;;;;14.00;14.00;;;;;23.42;88.56;99220.38;6278332;20;3537772;-55